Time;durP1;ratioP1;P1;durP2;ratioP2;P2;SDS_P1;SDS_P2;PMS_P1;PMS_P2;Temp;Humidity;BMP_temperature;BMP_pressure;BME280_temperature;BME280_humidity;BME280_pressure;Samples;Min_cycle;Max_cycle;Signal;HPM_P1;HPM_P2
2023/06/18 00:02:07;;;;;;;11.57;8.48;;;18.00;99.90;;;;;;5002555;28;20057;-83
2023/06/18 00:04:33;;;;;;;12.05;9.10;;;17.90;99.90;;;;;;5008936;28;20034;-85
2023/06/18 00:06:59;;;;;;;11.90;8.70;;;17.90;99.90;;;;;;5010608;28;20018;-84
2023/06/18 00:09:25;;;;;;;13.70;8.70;;;18.00;99.90;;;;;;5005445;28;20025;-86
2023/06/18 00:11:51;;;;;;;14.68;8.90;;;17.90;99.90;;;;;;5006804;28;20037;-85
2023/06/18 00:14:17;;;;;;;18.60;9.13;;;17.90;99.90;;;;;;5005142;28;20023;-85
2023/06/18 00:16:43;;;;;;;13.13;8.98;;;17.90;99.90;;;;;;5020856;28;20037;-84
2023/06/18 00:19:09;;;;;;;17.98;8.88;;;18.00;99.90;;;;;;5007569;28;20033;-83
2023/06/18 00:21:35;;;;;;;10.90;8.57;;;18.00;99.90;;;;;;5004053;28;20034;-84
2023/06/18 00:24:01;;;;;;;13.13;8.63;;;17.90;99.90;;;;;;5011519;28;20033;-87
2023/06/18 00:26:26;;;;;;;14.98;8.43;;;17.90;99.90;;;;;;5015098;28;20113;-84
2023/06/18 00:28:52;;;;;;;10.85;8.40;;;17.90;99.90;;;;;;5007211;28;20253;-84
2023/06/18 00:31:19;;;;;;;9.27;7.47;;;17.90;99.90;;;;;;5011901;28;20045;-85
2023/06/18 00:33:44;;;;;;;10.38;7.03;;;17.80;99.90;;;;;;5009164;28;20057;-85
2023/06/18 00:36:10;;;;;;;8.73;6.72;;;17.80;99.90;;;;;;5018185;28;20053;-84
2023/06/18 00:38:36;;;;;;;10.07;7.72;;;17.70;99.90;;;;;;4999844;28;20123;-85
2023/06/18 00:41:02;;;;;;;9.93;8.02;;;17.70;99.90;;;;;;5010865;28;20033;-86
2023/06/18 00:43:28;;;;;;;11.43;7.47;;;17.60;99.90;;;;;;5011964;28;20395;-84
2023/06/18 00:46:01;;;;;;;11.63;9.98;;;17.60;99.90;;;;;;5005500;28;20241;-83
2023/06/18 00:48:27;;;;;;;11.73;8.65;;;17.50;99.90;;;;;;5001811;28;20478;-84
2023/06/18 00:50:53;;;;;;;11.25;8.13;;;17.40;99.90;;;;;;5010616;28;20537;-84
2023/06/18 00:53:20;;;;;;;11.07;8.23;;;17.30;99.90;;;;;;5006751;28;20440;-84
2023/06/18 00:55:47;;;;;;;9.95;7.90;;;17.20;99.90;;;;;;5006376;28;20135;-84
2023/06/18 00:58:13;;;;;;;9.48;8.05;;;17.10;99.90;;;;;;5006078;28;20491;-84
2023/06/18 01:00:41;;;;;;;9.93;8.05;;;16.90;99.90;;;;;;5007590;28;20113;-85
2023/06/18 01:03:18;;;;;;;14.55;8.68;;;16.90;99.90;;;;;;5006754;28;20476;-84
2023/06/18 01:05:50;;;;;;;12.05;8.95;;;16.70;99.90;;;;;;5006556;28;20104;-83
2023/06/18 01:08:17;;;;;;;10.85;8.75;;;16.60;99.90;;;;;;5005427;28;20026;-84
2023/06/18 01:10:43;;;;;;;13.23;9.25;;;16.50;99.90;;;;;;5006388;28;20026;-84
2023/06/18 01:13:10;;;;;;;12.50;9.15;;;16.40;99.90;;;;;;5005651;28;20041;-84
2023/06/18 01:15:36;;;;;;;12.60;9.15;;;16.30;99.90;;;;;;5004826;28;20391;-84
2023/06/18 01:18:07;;;;;;;11.18;9.18;;;16.20;99.90;;;;;;5002844;28;20555;-85
2023/06/18 01:20:40;;;;;;;10.40;8.30;;;16.10;99.90;;;;;;5000905;28;20058;-84
2023/06/18 01:23:25;;;;;;;11.85;8.73;;;15.90;99.90;;;;;;4998821;28;20113;-84
2023/06/18 01:25:52;;;;;;;11.70;8.55;;;15.90;99.90;;;;;;5003736;28;20030;-84
2023/06/18 01:28:19;;;;;;;11.80;9.20;;;15.80;99.90;;;;;;5004103;28;20031;-84
2023/06/18 01:30:46;;;;;;;12.52;9.63;;;15.70;99.90;;;;;;5003773;28;20030;-86
2023/06/18 01:33:12;;;;;;;12.13;9.50;;;15.70;99.90;;;;;;5003790;28;20440;-84
2023/06/18 01:35:38;;;;;;;13.35;9.70;;;15.60;99.90;;;;;;5007596;28;20030;-84
2023/06/18 01:38:40;;;;;;;12.10;9.88;;;15.50;99.90;;;;;;5004768;28;20140;-84
2023/06/18 01:41:18;;;;;;;12.13;9.60;;;15.50;99.90;;;;;;4997440;28;20515;-84
2023/06/18 01:43:55;;;;;;;10.77;9.07;;;15.50;99.90;;;;;;5005233;28;20200;-84
2023/06/18 01:46:23;;;;;;;15.23;10.45;;;15.40;99.90;;;;;;5010316;28;20022;-84
2023/06/18 01:48:55;;;;;;;12.00;9.52;;;15.40;99.90;;;;;;5007967;28;20030;-85
2023/06/18 01:51:23;;;;;;;18.00;10.05;;;15.40;99.90;;;;;;5004370;28;20097;-85
2023/06/18 01:53:51;;;;;;;11.32;9.05;;;15.30;99.90;;;;;;5002397;28;20068;-85
2023/06/18 01:56:21;;;;;;;18.52;10.10;;;15.30;99.90;;;;;;5006918;28;20033;-85
2023/06/18 01:58:46;;;;;;;14.82;10.75;;;15.20;99.90;;;;;;5012387;28;20076;-85
2023/06/18 02:01:12;;;;;;;14.48;10.52;;;15.20;99.90;;;;;;5008535;28;20025;-84
2023/06/18 02:03:39;;;;;;;15.57;10.20;;;15.10;99.90;;;;;;4989111;28;20057;-84
2023/06/18 02:06:05;;;;;;;13.90;9.70;;;15.10;99.90;;;;;;5008174;28;20039;-85
2023/06/18 02:08:31;;;;;;;13.52;9.85;;;15.10;99.90;;;;;;5023029;28;20036;-84
2023/06/18 02:10:57;;;;;;;13.23;10.68;;;15.00;99.90;;;;;;5009966;28;20029;-84
2023/06/18 02:13:23;;;;;;;13.98;10.57;;;15.00;99.90;;;;;;5006966;28;20068;-84
2023/06/18 02:15:48;;;;;;;13.82;9.80;;;15.00;99.90;;;;;;5007088;28;20025;-84
2023/06/18 02:18:14;;;;;;;13.40;10.35;;;14.90;99.90;;;;;;5007838;28;20485;-84
2023/06/18 02:20:42;;;;;;;16.10;10.93;;;14.90;99.90;;;;;;5006565;28;20045;-86
2023/06/18 02:23:09;;;;;;;15.10;10.27;;;14.90;99.90;;;;;;5009534;28;20029;-84
2023/06/18 02:25:35;;;;;;;14.70;10.90;;;14.80;99.90;;;;;;5005821;28;20026;-84
2023/06/18 02:28:05;;;;;;;17.30;11.05;;;14.80;99.90;;;;;;5014939;28;20048;-84
2023/06/18 02:30:31;;;;;;;12.23;9.70;;;14.80;99.90;;;;;;5006471;28;20030;-86
2023/06/18 02:33:01;;;;;;;17.52;10.90;;;14.80;99.90;;;;;;5011084;28;20037;-84
2023/06/18 02:35:28;;;;;;;20.48;11.55;;;14.70;99.90;;;;;;5006134;28;20116;-84
2023/06/18 02:37:54;;;;;;;15.85;11.32;;;14.70;99.90;;;;;;5010529;28;20056;-84
2023/06/18 02:40:21;;;;;;;14.73;10.60;;;14.70;99.90;;;;;;5011033;28;20475;-84
2023/06/18 02:42:47;;;;;;;14.95;11.57;;;14.70;99.90;;;;;;5007514;28;20030;-85
2023/06/18 02:45:24;;;;;;;18.05;11.15;;;14.70;99.90;;;;;;5005002;28;20037;-83
2023/06/18 02:47:50;;;;;;;23.60;12.65;;;14.70;99.90;;;;;;5010782;28;20036;-83
2023/06/18 02:50:17;;;;;;;17.13;12.63;;;14.70;99.90;;;;;;5010908;28;20018;-84
2023/06/18 02:52:45;;;;;;;16.20;11.65;;;14.70;99.90;;;;;;5005832;28;20037;-83
2023/06/18 02:55:11;;;;;;;15.48;11.40;;;14.70;99.90;;;;;;5004789;28;20599;-84
2023/06/18 02:57:38;;;;;;;19.55;11.75;;;14.70;99.90;;;;;;4995784;28;20074;-84
2023/06/18 03:00:09;;;;;;;14.85;11.23;;;14.70;99.90;;;;;;5007611;28;20109;-85
2023/06/18 03:02:38;;;;;;;13.07;10.57;;;14.70;99.90;;;;;;5005346;28;20435;-84
2023/06/18 03:05:04;;;;;;;15.18;11.05;;;14.80;99.90;;;;;;4995905;28;20034;-84
2023/06/18 03:07:30;;;;;;;18.10;13.52;;;14.90;99.90;;;;;;5003676;28;20418;-84
2023/06/18 03:09:56;;;;;;;13.35;10.57;;;14.90;99.90;;;;;;5006393;28;20053;-84
2023/06/18 03:12:21;;;;;;;17.08;10.45;;;15.00;99.90;;;;;;5008483;28;20361;-84
2023/06/18 03:14:47;;;;;;;16.75;11.05;;;15.00;99.90;;;;;;5010207;28;20391;-85
2023/06/18 03:17:12;;;;;;;15.02;12.15;;;15.00;99.90;;;;;;5003554;28;20088;-83
2023/06/18 03:19:38;;;;;;;14.05;11.05;;;15.00;99.90;;;;;;5010505;28;20116;-83
2023/06/18 03:22:05;;;;;;;17.75;10.93;;;15.00;99.90;;;;;;5009995;28;20034;-84
2023/06/18 03:24:32;;;;;;;18.15;11.90;;;14.90;99.90;;;;;;5015680;28;20391;-87
2023/06/18 03:26:59;;;;;;;14.90;10.90;;;14.90;99.90;;;;;;5019414;28;20030;-83
2023/06/18 03:29:25;;;;;;;15.77;11.18;;;14.90;99.90;;;;;;5011392;28;20036;-84
2023/06/18 03:31:53;;;;;;;16.95;11.70;;;14.90;99.90;;;;;;5015310;28;20060;-83
2023/06/18 03:34:20;;;;;;;14.98;12.00;;;14.80;99.90;;;;;;5007477;28;20057;-84
2023/06/18 03:36:46;;;;;;;14.73;11.23;;;14.80;99.90;;;;;;5009709;28;20042;-85
2023/06/18 03:39:12;;;;;;;15.98;12.02;;;14.80;99.90;;;;;;5006140;28;20030;-83
2023/06/18 03:41:38;;;;;;;17.48;12.38;;;14.70;99.90;;;;;;5009468;28;20656;-84
2023/06/18 03:44:04;;;;;;;17.13;11.65;;;14.70;99.90;;;;;;5004621;28;20030;-84
2023/06/18 03:46:30;;;;;;;15.85;12.20;;;14.60;99.90;;;;;;5008502;28;20075;-83
2023/06/18 03:48:56;;;;;;;18.05;12.43;;;14.60;99.90;;;;;;5011576;28;20029;-86
2023/06/18 03:51:21;;;;;;;15.70;11.50;;;14.70;99.90;;;;;;5001391;28;20027;-84
2023/06/18 03:53:47;;;;;;;15.93;12.70;;;14.70;99.90;;;;;;5007582;28;20483;-84
2023/06/18 03:56:13;;;;;;;16.63;12.07;;;14.70;99.90;;;;;;5005473;28;20491;-84
2023/06/18 03:58:38;;;;;;;19.98;12.85;;;14.70;99.90;;;;;;5008672;28;20042;-83
2023/06/18 04:01:05;;;;;;;15.88;12.15;;;14.70;99.90;;;;;;5010079;28;20022;-84
2023/06/18 04:03:30;;;;;;;15.38;11.60;;;14.70;99.90;;;;;;5004179;28;20046;-83
2023/06/18 04:05:56;;;;;;;14.02;10.95;;;14.70;99.90;;;;;;5003303;28;20495;-84
2023/06/18 04:08:21;;;;;;;15.23;10.93;;;14.90;99.90;;;;;;5003232;28;20453;-84
2023/06/18 04:10:48;;;;;;;14.98;11.38;;;14.90;99.90;;;;;;5017710;28;20149;-84
2023/06/18 04:13:17;;;;;;;16.65;10.98;;;15.00;99.90;;;;;;5014325;28;20029;-83
2023/06/18 04:15:43;;;;;;;17.25;11.40;;;15.10;99.90;;;;;;5002985;28;20049;-85
2023/06/18 04:18:10;;;;;;;12.98;10.35;;;15.20;99.90;;;;;;5011679;28;20060;-84
2023/06/18 04:20:35;;;;;;;15.02;10.98;;;15.20;99.90;;;;;;5001523;28;20321;-84
2023/06/18 04:23:01;;;;;;;18.25;12.68;;;15.30;99.90;;;;;;5008624;28;20057;-84
2023/06/18 04:25:27;;;;;;;16.45;11.68;;;15.30;99.90;;;;;;5002318;28;20025;-83
2023/06/18 04:27:53;;;;;;;16.40;11.00;;;15.30;99.90;;;;;;5004835;28;20054;-84
2023/06/18 04:30:19;;;;;;;16.30;12.02;;;15.30;99.90;;;;;;5003915;28;20019;-84
2023/06/18 04:32:45;;;;;;;17.15;11.40;;;15.40;99.90;;;;;;5006722;28;20057;-84
2023/06/18 04:35:11;;;;;;;13.90;11.40;;;15.30;99.90;;;;;;4997964;28;20062;-83
2023/06/18 04:37:37;;;;;;;15.50;11.25;;;15.40;99.90;;;;;;5004877;28;20586;-83
2023/06/18 04:40:06;;;;;;;15.93;11.82;;;15.40;99.90;;;;;;5005523;28;20117;-84
2023/06/18 04:42:32;;;;;;;15.02;11.10;;;15.50;99.90;;;;;;5004986;28;20037;-84
2023/06/18 04:44:58;;;;;;;18.75;12.57;;;15.60;99.90;;;;;;4987278;28;20030;-84
2023/06/18 04:47:23;;;;;;;14.30;11.10;;;15.60;99.90;;;;;;5007646;28;20029;-83
2023/06/18 04:49:50;;;;;;;13.05;11.18;;;15.70;99.90;;;;;;5008996;28;20042;-84
2023/06/18 04:52:16;;;;;;;15.90;11.82;;;15.80;99.90;;;;;;5011287;28;20030;-86
2023/06/18 04:54:42;;;;;;;14.32;11.27;;;15.90;99.90;;;;;;5010858;28;20053;-84
2023/06/18 04:57:10;;;;;;;12.88;10.48;;;16.00;99.90;;;;;;5008208;28;20037;-84
2023/06/18 04:59:38;;;;;;;12.15;10.32;;;16.10;99.90;;;;;;5008882;28;20048;-84
2023/06/18 05:02:04;;;;;;;14.43;10.85;;;16.20;99.90;;;;;;5010092;28;20037;-84
2023/06/18 05:04:31;;;;;;;17.15;11.38;;;16.20;99.90;;;;;;5009696;28;20028;-85
2023/06/18 05:06:56;;;;;;;13.63;11.30;;;16.30;99.90;;;;;;5006189;28;20026;-84
2023/06/18 05:09:22;;;;;;;14.07;11.80;;;16.30;99.90;;;;;;5007917;28;20030;-84
2023/06/18 05:11:48;;;;;;;15.60;11.05;;;16.40;99.90;;;;;;5008834;28;20485;-84
2023/06/18 05:14:14;;;;;;;13.40;10.38;;;16.50;99.90;;;;;;5007315;28;20030;-84
2023/06/18 05:16:41;;;;;;;12.40;10.27;;;16.50;99.90;;;;;;5007723;28;20568;-83
2023/06/18 05:19:06;;;;;;;14.23;10.88;;;16.70;99.90;;;;;;4998746;28;20196;-83
2023/06/18 05:21:32;;;;;;;14.10;11.75;;;16.80;99.90;;;;;;5006250;28;20109;-84
2023/06/18 05:23:57;;;;;;;13.73;11.35;;;16.80;99.90;;;;;;5014624;28;20034;-83
2023/06/18 05:26:23;;;;;;;21.85;13.75;;;17.00;99.90;;;;;;5004882;28;20025;-83
2023/06/18 05:28:50;;;;;;;19.98;13.13;;;17.10;99.90;;;;;;5009589;28;20060;-84
2023/06/18 05:31:16;;;;;;;23.23;13.50;;;17.20;99.90;;;;;;5006362;28;20033;-84
2023/06/18 05:33:41;;;;;;;19.17;12.88;;;17.40;99.90;;;;;;5005169;28;20427;-83
2023/06/18 05:36:07;;;;;;;18.55;12.35;;;17.60;99.90;;;;;;5002802;28;20029;-86
2023/06/18 05:38:32;;;;;;;19.17;13.10;;;17.80;99.90;;;;;;5006776;28;20041;-84
2023/06/18 05:40:58;;;;;;;21.00;13.32;;;17.90;99.90;;;;;;5003742;28;20037;-84
2023/06/18 05:43:24;;;;;;;19.27;12.15;;;18.10;99.90;;;;;;4991405;28;20030;-84
2023/06/18 05:45:50;;;;;;;19.08;12.35;;;18.20;99.90;;;;;;5000070;28;20030;-83
2023/06/18 05:48:16;;;;;;;17.63;12.38;;;18.20;99.90;;;;;;5002248;28;20454;-83
2023/06/18 05:50:42;;;;;;;16.35;12.00;;;18.40;99.90;;;;;;4988427;28;20425;-83
2023/06/18 05:53:07;;;;;;;20.90;12.13;;;18.40;99.90;;;;;;5018899;28;20022;-83
2023/06/18 05:55:33;;;;;;;19.98;13.07;;;18.50;99.90;;;;;;5015257;28;20111;-83
2023/06/18 05:57:59;;;;;;;17.40;12.27;;;18.50;99.90;;;;;;4993061;28;20042;-83
2023/06/18 06:00:26;;;;;;;18.00;12.48;;;18.50;99.90;;;;;;5008062;28;20113;-83
2023/06/18 06:02:51;;;;;;;17.40;12.25;;;18.60;99.90;;;;;;5003417;28;20096;-83
2023/06/18 06:05:17;;;;;;;18.35;11.88;;;18.80;99.90;;;;;;5008029;28;20029;-84
2023/06/18 06:07:43;;;;;;;15.63;11.43;;;18.80;99.90;;;;;;5007880;28;20026;-84
2023/06/18 06:10:09;;;;;;;19.45;12.73;;;18.80;99.90;;;;;;5008404;28;20476;-83
2023/06/18 06:12:36;;;;;;;15.93;12.20;;;18.80;99.90;;;;;;4999366;28;20018;-85
2023/06/18 06:15:02;;;;;;;16.75;11.75;;;18.80;99.90;;;;;;4998222;28;20428;-83
2023/06/18 06:17:28;;;;;;;21.05;12.05;;;18.90;99.90;;;;;;4998991;28;20034;-84
2023/06/18 06:19:53;;;;;;;19.42;12.32;;;18.90;99.90;;;;;;5004429;28;20034;-83
2023/06/18 06:22:19;;;;;;;19.73;12.35;;;19.00;99.90;;;;;;5014467;28;20165;-83
2023/06/18 06:24:45;;;;;;;19.33;11.05;;;19.00;99.90;;;;;;5007855;28;20455;-83
2023/06/18 06:27:11;;;;;;;14.43;11.35;;;19.00;99.90;;;;;;5007456;28;20377;-83
2023/06/18 06:29:37;;;;;;;16.17;11.63;;;19.10;99.90;;;;;;5007447;28;20535;-83
2023/06/18 06:32:03;;;;;;;25.25;12.65;;;19.20;99.90;;;;;;5000333;28;20075;-83
2023/06/18 06:34:29;;;;;;;25.60;13.10;;;19.20;99.90;;;;;;5004075;28;20029;-83
2023/06/18 06:36:55;;;;;;;16.50;10.95;;;19.20;99.90;;;;;;5000550;28;20635;-83
2023/06/18 06:39:21;;;;;;;19.05;11.73;;;19.30;99.90;;;;;;5009504;28;20030;-83
2023/06/18 06:41:46;;;;;;;17.40;10.55;;;19.40;99.90;;;;;;5005668;28;20087;-84
2023/06/18 06:44:12;;;;;;;16.27;11.10;;;19.50;99.90;;;;;;5010484;28;20025;-84
2023/06/18 06:46:39;;;;;;;24.15;11.20;;;19.50;99.90;;;;;;5008285;28;20017;-84
2023/06/18 06:49:07;;;;;;;14.27;9.48;;;19.50;99.90;;;;;;5012601;28;20034;-84
2023/06/18 06:51:36;;;;;;;16.63;10.70;;;19.60;99.90;;;;;;5005670;28;20021;-85
2023/06/18 06:54:03;;;;;;;17.63;11.23;;;19.60;99.90;;;;;;5004170;28;20062;-84
2023/06/18 06:56:30;;;;;;;12.82;10.25;;;19.60;99.90;;;;;;5008700;28;20069;-85
2023/06/18 06:58:55;;;;;;;10.25;8.75;;;19.60;99.90;;;;;;5007420;28;20038;-87
2023/06/18 07:01:21;;;;;;;12.45;9.40;;;19.60;99.90;;;;;;5010369;28;20037;-85
2023/06/18 07:03:47;;;;;;;12.00;9.85;;;19.60;99.90;;;;;;5001777;28;20083;-86
2023/06/18 07:06:12;;;;;;;15.05;9.73;;;19.60;99.90;;;;;;5004892;28;20057;-86
2023/06/18 07:08:38;;;;;;;12.35;8.90;;;19.70;99.90;;;;;;5013732;28;20408;-85
2023/06/18 07:11:04;;;;;;;12.65;10.45;;;19.70;99.90;;;;;;5016951;28;20041;-85
2023/06/18 07:13:30;;;;;;;13.77;9.57;;;19.70;99.90;;;;;;5014584;28;20099;-86
2023/06/18 07:15:56;;;;;;;15.82;9.63;;;19.80;99.90;;;;;;5017132;28;20068;-86
2023/06/18 07:18:22;;;;;;;15.52;11.07;;;19.80;99.90;;;;;;5010347;28;20380;-85
2023/06/18 07:20:47;;;;;;;14.20;10.23;;;19.90;99.90;;;;;;5018001;28;20035;-85
2023/06/18 07:23:13;;;;;;;16.85;10.60;;;19.90;99.90;;;;;;5020665;28;20120;-85
2023/06/18 07:25:38;;;;;;;15.43;11.32;;;20.00;99.90;;;;;;5011491;28;20022;-85
2023/06/18 07:28:04;;;;;;;11.77;9.85;;;20.10;99.90;;;;;;5012933;28;20045;-87
2023/06/18 07:30:29;;;;;;;10.38;8.82;;;20.00;99.90;;;;;;5005381;28;20025;-86
2023/06/18 07:32:55;;;;;;;15.95;9.60;;;20.00;99.90;;;;;;5017555;28;20395;-87
2023/06/18 07:35:20;;;;;;;15.32;9.65;;;20.10;99.90;;;;;;4992539;28;20080;-86
2023/06/18 07:37:47;;;;;;;17.35;10.23;;;20.10;99.90;;;;;;5014349;28;20369;-85
2023/06/18 07:40:13;;;;;;;15.63;10.63;;;20.20;99.90;;;;;;5011053;28;20032;-86
2023/06/18 07:42:38;;;;;;;16.20;10.18;;;20.30;99.90;;;;;;5006266;28;20061;-86
2023/06/18 07:45:05;;;;;;;12.07;9.02;;;20.40;99.90;;;;;;5012022;28;20080;-85
2023/06/18 07:47:31;;;;;;;13.25;10.18;;;20.40;99.90;;;;;;5013389;28;20076;-86
2023/06/18 07:49:58;;;;;;;16.48;10.73;;;20.40;99.90;;;;;;5014346;28;20034;-86
2023/06/18 07:52:24;;;;;;;17.02;10.73;;;20.50;99.90;;;;;;5000178;28;20032;-86
2023/06/18 07:54:49;;;;;;;10.93;9.15;;;20.50;99.90;;;;;;5007649;28;20481;-85
2023/06/18 07:57:15;;;;;;;12.00;8.68;;;20.50;99.90;;;;;;5006700;28;20030;-86
2023/06/18 07:59:40;;;;;;;15.32;10.25;;;20.60;99.90;;;;;;5013374;28;20025;-85
2023/06/18 08:02:06;;;;;;;13.80;9.80;;;20.60;99.90;;;;;;5000656;28;20217;-83
2023/06/18 08:04:32;;;;;;;13.23;10.10;;;20.60;99.90;;;;;;5003716;28;20030;-86
2023/06/18 08:06:57;;;;;;;15.73;10.52;;;20.60;99.90;;;;;;4997974;28;20069;-85
2023/06/18 08:09:23;;;;;;;13.23;10.23;;;20.60;99.90;;;;;;5004715;28;20072;-85
2023/06/18 08:11:48;;;;;;;13.80;9.43;;;20.70;99.90;;;;;;5007519;28;20442;-85
2023/06/18 08:14:14;;;;;;;12.70;9.18;;;20.80;99.90;;;;;;4995820;28;20017;-84
2023/06/18 08:16:40;;;;;;;12.10;8.45;;;20.80;99.90;;;;;;5012327;28;20022;-84
2023/06/18 08:19:08;;;;;;;11.07;8.98;;;20.80;99.90;;;;;;5009617;28;20053;-86
2023/06/18 08:21:34;;;;;;;14.05;9.73;;;20.90;99.90;;;;;;4988048;28;20037;-83
2023/06/18 08:24:02;;;;;;;12.30;9.70;;;21.00;99.90;;;;;;4998871;28;20030;-85
2023/06/18 08:26:27;;;;;;;13.02;9.10;;;21.10;99.90;;;;;;4998960;28;20018;-84
2023/06/18 08:28:53;;;;;;;13.50;8.90;;;21.10;99.90;;;;;;5001667;28;20160;-85
2023/06/18 08:31:20;;;;;;;18.00;10.25;;;21.10;99.90;;;;;;5001581;28;20837;-84
2023/06/18 08:33:46;;;;;;;12.40;8.93;;;21.20;99.90;;;;;;5017196;28;20037;-86
2023/06/18 08:36:12;;;;;;;14.55;9.25;;;21.20;99.90;;;;;;5019096;28;20537;-84
2023/06/18 08:38:37;;;;;;;12.15;8.35;;;21.20;99.90;;;;;;4999933;28;20041;-83
2023/06/18 08:41:03;;;;;;;12.02;8.02;;;21.20;99.90;;;;;;5012698;28;20032;-84
2023/06/18 08:43:32;;;;;;;8.63;7.05;;;21.20;99.90;;;;;;5009592;28;20026;-83
2023/06/18 08:46:12;;;;;;;13.15;7.78;;;21.30;99.90;;;;;;5001418;28;20030;-83
2023/06/18 08:48:47;;;;;;;12.77;7.78;;;21.30;99.90;;;;;;5006180;28;20075;-83
2023/06/18 08:51:15;;;;;;;12.40;8.05;;;21.40;99.90;;;;;;5004444;28;20037;-83
2023/06/18 08:53:48;;;;;;;12.80;9.00;;;21.40;99.90;;;;;;5005078;28;20026;-84
2023/06/18 08:56:17;;;;;;;10.32;8.48;;;21.50;99.90;;;;;;5007968;28;20034;-84
2023/06/18 08:58:56;;;;;;;11.25;8.23;;;21.60;99.90;;;;;;5012450;28;20168;-83
2023/06/18 09:01:23;;;;;;;14.23;7.82;;;21.70;99.90;;;;;;5004026;28;20030;-83
2023/06/18 09:03:49;;;;;;;11.65;8.05;;;21.80;99.90;;;;;;5008046;28;20037;-85
2023/06/18 09:06:15;;;;;;;13.45;7.97;;;21.80;99.90;;;;;;4996098;28;20422;-84
2023/06/18 09:08:41;;;;;;;11.88;7.85;;;21.90;99.90;;;;;;4993240;28;20030;-84
2023/06/18 09:11:07;;;;;;;9.57;8.43;;;21.90;99.90;;;;;;5006567;28;20479;-83
2023/06/18 09:13:33;;;;;;;11.38;7.70;;;21.90;99.90;;;;;;5006741;28;20022;-85
2023/06/18 09:16:00;;;;;;;14.52;8.43;;;21.90;99.90;;;;;;5012668;28;20433;-83
2023/06/18 09:18:26;;;;;;;16.52;7.30;;;21.90;99.90;;;;;;5010935;28;20569;-83
2023/06/18 09:20:53;;;;;;;11.93;7.18;;;22.00;99.90;;;;;;5000345;28;20037;-84
2023/06/18 09:23:19;;;;;;;14.93;7.07;;;22.10;99.90;;;;;;5001889;28;20558;-84
2023/06/18 09:25:54;;;;;;;6.18;5.55;;;22.10;99.90;;;;;;5003115;28;20121;-83
2023/06/18 09:28:23;;;;;;;11.90;7.55;;;22.20;99.90;;;;;;5011791;28;20506;-83
2023/06/18 09:30:53;;;;;;;10.90;6.25;;;22.20;99.90;;;;;;5013988;28;20038;-85
2023/06/18 09:33:33;;;;;;;9.80;6.70;;;22.30;99.90;;;;;;5005230;28;20410;-83
2023/06/18 09:36:07;;;;;;;8.88;6.55;;;22.40;99.90;;;;;;5010156;28;20021;-85
2023/06/18 09:38:41;;;;;;;11.63;7.07;;;22.40;99.90;;;;;;4999959;28;20471;-84
2023/06/18 09:41:17;;;;;;;7.97;6.68;;;22.50;99.90;;;;;;4999080;28;20296;-83
2023/06/18 09:43:47;;;;;;;9.07;6.22;;;22.60;99.90;;;;;;4999324;28;20025;-83
2023/06/18 09:46:12;;;;;;;12.00;7.00;;;22.70;99.90;;;;;;4998161;28;20498;-85
2023/06/18 09:48:44;;;;;;;12.15;7.32;;;22.70;99.90;;;;;;5011208;28;20049;-84
2023/06/18 09:51:10;;;;;;;8.90;6.82;;;22.80;99.90;;;;;;4998781;28;20029;-83
2023/06/18 09:53:39;;;;;;;8.45;6.13;;;22.80;99.90;;;;;;5001441;28;20040;-84
2023/06/18 09:56:13;;;;;;;9.68;6.45;;;22.90;99.90;;;;;;4995957;28;20395;-86
2023/06/18 09:58:42;;;;;;;9.32;6.05;;;22.90;99.90;;;;;;5004146;28;20117;-84
2023/06/18 10:01:08;;;;;;;11.07;6.57;;;23.00;99.90;;;;;;4997820;28;20029;-83
2023/06/18 10:03:34;;;;;;;7.13;6.32;;;23.00;99.90;;;;;;4996560;28;20084;-83
2023/06/18 10:06:13;;;;;;;11.52;6.03;;;23.10;99.90;;;;;;5007050;28;20125;-81
2023/06/18 10:08:42;;;;;;;12.05;7.32;;;23.00;99.90;;;;;;5001427;28;20076;-80
2023/06/18 10:11:09;;;;;;;8.57;6.78;;;23.10;99.90;;;;;;5000886;28;20511;-81
2023/06/18 10:13:53;;;;;;;9.82;6.38;;;23.30;99.90;;;;;;4981458;28;20447;-81
2023/06/18 10:16:20;;;;;;;6.75;5.68;;;23.30;99.90;;;;;;4998459;28;20464;-82
2023/06/18 10:19:02;;;;;;;9.73;6.28;;;23.40;99.70;;;;;;4996966;28;20434;-81
2023/06/18 10:21:28;;;;;;;8.63;5.35;;;23.40;97.60;;;;;;4996370;28;20022;-81
2023/06/18 10:24:11;;;;;;;9.00;5.60;;;23.40;96.80;;;;;;5007205;28;20022;-81
2023/06/18 10:26:38;;;;;;;7.90;5.45;;;23.40;93.80;;;;;;5004799;28;20067;-80
2023/06/18 10:29:05;;;;;;;8.95;5.30;;;23.40;91.30;;;;;;5003413;28;20030;-82
2023/06/18 10:31:32;;;;;;;7.43;5.15;;;23.40;89.70;;;;;;5011104;28;20080;-83
2023/06/18 10:33:58;;;;;;;9.23;5.07;;;23.40;86.70;;;;;;5014627;28;20036;-81
2023/06/18 10:36:25;;;;;;;9.40;4.75;;;23.40;90.00;;;;;;5012143;28;20351;-82
2023/06/18 10:38:53;;;;;;;8.23;5.13;;;23.40;87.70;;;;;;5003774;28;20048;-83
2023/06/18 10:41:20;;;;;;;6.70;4.65;;;23.50;91.20;;;;;;5004096;28;20037;-82
2023/06/18 10:43:53;;;;;;;8.65;4.47;;;23.50;89.70;;;;;;5006692;28;20029;-82
2023/06/18 10:46:21;;;;;;;8.75;5.57;;;23.60;88.30;;;;;;4994464;28;20037;-80
2023/06/18 10:49:16;;;;;;;8.18;5.38;;;23.70;82.50;;;;;;5009932;28;20036;-81
2023/06/18 10:52:12;;;;;;;8.35;5.68;;;23.70;88.10;;;;;;5006879;28;20355;-81
2023/06/18 10:54:38;;;;;;;9.98;5.28;;;23.80;78.60;;;;;;4997758;28;20408;-81
2023/06/18 10:57:04;;;;;;;41.83;25.30;;;23.80;79.70;;;;;;5005536;28;20069;-81
2023/06/18 10:59:45;;;;;;;11.80;7.82;;;23.90;79.20;;;;;;5001534;28;20026;-81
2023/06/18 11:02:12;;;;;;;11.95;6.30;;;23.90;78.50;;;;;;5007213;28;20462;-81
2023/06/18 11:04:38;;;;;;;8.90;4.70;;;23.90;77.60;;;;;;5005391;28;20491;-82
2023/06/18 11:07:18;;;;;;;7.78;5.07;;;23.90;75.20;;;;;;5004898;28;20040;-81
2023/06/18 11:09:59;;;;;;;42.67;26.23;;;23.80;77.50;;;;;;5001470;28;20059;-81
2023/06/18 11:12:28;;;;;;;11.68;8.15;;;24.00;78.90;;;;;;5009571;28;20117;-83
2023/06/18 11:15:20;;;;;;;6.60;4.45;;;24.00;82.30;;;;;;4995896;28;20026;-83
2023/06/18 11:17:50;;;;;;;7.88;6.25;;;24.10;76.40;;;;;;4995006;28;20165;-82
2023/06/18 11:20:18;;;;;;;6.43;4.75;;;24.20;73.80;;;;;;5002781;28;20034;-81
2023/06/18 11:22:44;;;;;;;6.22;5.40;;;24.30;78.60;;;;;;4994581;28;20026;-82
2023/06/18 11:25:12;;;;;;;8.55;5.57;;;24.40;74.10;;;;;;4991127;28;20023;-81
2023/06/18 11:27:42;;;;;;;6.07;4.90;;;24.50;72.40;;;;;;5002933;28;20809;-83
2023/06/18 11:30:10;;;;;;;7.35;5.22;;;24.50;71.00;;;;;;5006206;28;20030;-82
2023/06/18 11:32:35;;;;;;;7.70;5.15;;;24.50;69.70;;;;;;4998623;28;20034;-82
2023/06/18 11:35:01;;;;;;;7.72;4.90;;;24.50;69.20;;;;;;5001720;28;20088;-82
2023/06/18 11:37:30;;;;;;;9.23;4.88;;;24.50;68.90;;;;;;5004149;28;20684;-81
2023/06/18 11:39:56;;;;;;;7.22;4.97;;;24.50;66.20;;;;;;5006588;28;20707;-82
2023/06/18 11:42:25;;;;;;;7.30;4.63;;;24.50;66.40;;;;;;5008073;28;20034;-82
2023/06/18 11:44:53;;;;;;;6.95;4.95;;;24.50;66.40;;;;;;4999836;28;20038;-84
2023/06/18 11:47:19;;;;;;;9.57;5.20;;;24.50;64.80;;;;;;5008176;28;20061;-81
2023/06/18 11:49:47;;;;;;;6.68;5.03;;;24.50;63.30;;;;;;5005059;28;20026;-81
2023/06/18 11:52:19;;;;;;;5.68;4.95;;;24.50;62.80;;;;;;5016872;28;20053;-81
2023/06/18 11:54:46;;;;;;;8.77;4.93;;;24.50;63.90;;;;;;5011550;28;20065;-82
2023/06/18 11:57:13;;;;;;;4.82;4.38;;;24.60;65.20;;;;;;5016103;28;20042;-79
2023/06/18 11:59:39;;;;;;;6.18;4.55;;;24.60;64.60;;;;;;5020394;28;20029;-79
2023/06/18 12:02:28;;;;;;;10.40;5.10;;;24.70;65.00;;;;;;5010789;28;20062;-80
2023/06/18 12:05:04;;;;;;;6.88;4.80;;;24.80;60.80;;;;;;4999093;28;20073;-80
2023/06/18 12:07:31;;;;;;;6.85;4.85;;;24.80;59.40;;;;;;5004487;28;20080;-81
2023/06/18 12:10:03;;;;;;;8.38;5.22;;;24.90;63.30;;;;;;5003304;28;20101;-79
2023/06/18 12:12:28;;;;;;;5.63;4.53;;;25.10;58.60;;;;;;5006337;28;20488;-80
2023/06/18 12:15:03;;;;;;;8.45;5.80;;;25.20;59.10;;;;;;5005193;28;20109;-79
2023/06/18 12:17:50;;;;;;;7.13;5.53;;;25.30;61.40;;;;;;4998240;28;20092;-79
2023/06/18 12:20:19;;;;;;;6.03;5.40;;;25.30;64.60;;;;;;5002489;28;20037;-81
2023/06/18 12:22:45;;;;;;;7.40;5.50;;;25.30;60.70;;;;;;5003458;28;20113;-80
2023/06/18 12:25:12;;;;;;;7.43;4.82;;;25.30;61.30;;;;;;5004387;28;20114;-79
2023/06/18 12:27:39;;;;;;;7.00;5.22;;;25.30;60.00;;;;;;5019878;28;20036;-79
2023/06/18 12:30:06;;;;;;;5.78;4.90;;;25.30;59.50;;;;;;5006253;28;20430;-80
2023/06/18 12:32:36;;;;;;;8.77;5.93;;;25.20;61.80;;;;;;5009956;28;20513;-80
2023/06/18 12:35:17;;;;;;;6.97;5.07;;;25.30;59.60;;;;;;5009897;28;20069;-80
2023/06/18 12:37:45;;;;;;;9.98;5.25;;;25.30;59.20;;;;;;5008342;28;20046;-79
2023/06/18 12:40:33;;;;;;;6.30;4.63;;;25.20;59.20;;;;;;5008698;28;20084;-80